sensor_id;sensor_type;location;lat;lon;timestamp;P1;durP1;ratioP1;P2;durP2;ratioP2
7477;SDS011;3780;42.424;25.636;2023-12-28T00:01:54;6.97;;;4.47;;
7477;SDS011;3780;42.424;25.636;2023-12-28T00:04:20;8.07;;;4.15;;
7477;SDS011;3780;42.424;25.636;2023-12-28T00:06:45;7.80;;;4.18;;
7477;SDS011;3780;42.424;25.636;2023-12-28T00:09:10;8.52;;;4.10;;
7477;SDS011;3780;42.424;25.636;2023-12-28T00:11:36;6.53;;;4.10;;
7477;SDS011;3780;42.424;25.636;2023-12-28T00:14:01;6.28;;;4.10;;
7477;SDS011;3780;42.424;25.636;2023-12-28T00:16:27;8.73;;;4.35;;
7477;SDS011;3780;42.424;25.636;2023-12-28T00:18:52;9.85;;;4.80;;
7477;SDS011;3780;42.424;25.636;2023-12-28T00:21:18;9.48;;;5.20;;
7477;SDS011;3780;42.424;25.636;2023-12-28T00:23:43;7.47;;;4.55;;
7477;SDS011;3780;42.424;25.636;2023-12-28T00:26:08;11.98;;;5.03;;
7477;SDS011;3780;42.424;25.636;2023-12-28T00:28:33;9.40;;;4.60;;
7477;SDS011;3780;42.424;25.636;2023-12-28T00:30:59;8.48;;;4.38;;
7477;SDS011;3780;42.424;25.636;2023-12-28T00:33:24;7.72;;;4.65;;
7477;SDS011;3780;42.424;25.636;2023-12-28T00:35:49;9.57;;;4.60;;
7477;SDS011;3780;42.424;25.636;2023-12-28T00:38:14;11.18;;;3.47;;
7477;SDS011;3780;42.424;25.636;2023-12-28T00:40:40;7.47;;;4.20;;
7477;SDS011;3780;42.424;25.636;2023-12-28T00:43:05;7.53;;;3.50;;
7477;SDS011;3780;42.424;25.636;2023-12-28T00:45:30;7.25;;;3.67;;
7477;SDS011;3780;42.424;25.636;2023-12-28T00:47:56;9.07;;;3.40;;
7477;SDS011;3780;42.424;25.636;2023-12-28T00:50:21;5.30;;;2.95;;
7477;SDS011;3780;42.424;25.636;2023-12-28T00:52:47;6.28;;;3.22;;
7477;SDS011;3780;42.424;25.636;2023-12-28T00:55:12;5.93;;;2.75;;
7477;SDS011;3780;42.424;25.636;2023-12-28T00:57:37;5.18;;;2.70;;
7477;SDS011;3780;42.424;25.636;2023-12-28T01:00:03;4.13;;;2.95;;
7477;SDS011;3780;42.424;25.636;2023-12-28T01:02:29;6.05;;;2.88;;
7477;SDS011;3780;42.424;25.636;2023-12-28T01:04:54;6.38;;;2.90;;
7477;SDS011;3780;42.424;25.636;2023-12-28T01:07:19;6.47;;;2.45;;
7477;SDS011;3780;42.424;25.636;2023-12-28T01:09:45;4.35;;;2.80;;
7477;SDS011;3780;42.424;25.636;2023-12-28T01:12:10;4.85;;;2.78;;
7477;SDS011;3780;42.424;25.636;2023-12-28T01:14:35;6.03;;;2.70;;
7477;SDS011;3780;42.424;25.636;2023-12-28T01:17:01;6.25;;;2.97;;
7477;SDS011;3780;42.424;25.636;2023-12-28T01:19:26;8.00;;;3.22;;
7477;SDS011;3780;42.424;25.636;2023-12-28T01:21:51;6.10;;;2.75;;
7477;SDS011;3780;42.424;25.636;2023-12-28T01:24:17;6.00;;;2.83;;
7477;SDS011;3780;42.424;25.636;2023-12-28T01:26:42;6.53;;;2.97;;
7477;SDS011;3780;42.424;25.636;2023-12-28T01:29:08;9.02;;;3.45;;
7477;SDS011;3780;42.424;25.636;2023-12-28T01:31:33;5.85;;;2.72;;
7477;SDS011;3780;42.424;25.636;2023-12-28T01:33:59;5.85;;;2.83;;
7477;SDS011;3780;42.424;25.636;2023-12-28T01:36:24;5.70;;;2.63;;
7477;SDS011;3780;42.424;25.636;2023-12-28T01:38:50;6.85;;;2.72;;
7477;SDS011;3780;42.424;25.636;2023-12-28T01:41:16;5.53;;;3.00;;
7477;SDS011;3780;42.424;25.636;2023-12-28T01:43:41;5.82;;;3.00;;
7477;SDS011;3780;42.424;25.636;2023-12-28T01:46:07;4.88;;;2.63;;
7477;SDS011;3780;42.424;25.636;2023-12-28T01:48:33;5.63;;;2.95;;
7477;SDS011;3780;42.424;25.636;2023-12-28T01:50:59;8.20;;;3.58;;
7477;SDS011;3780;42.424;25.636;2023-12-28T01:53:25;5.63;;;2.90;;
7477;SDS011;3780;42.424;25.636;2023-12-28T01:55:50;6.65;;;2.72;;
7477;SDS011;3780;42.424;25.636;2023-12-28T01:58:16;6.15;;;2.85;;
7477;SDS011;3780;42.424;25.636;2023-12-28T02:00:43;6.72;;;2.85;;
7477;SDS011;3780;42.424;25.636;2023-12-28T02:03:10;7.60;;;2.97;;
7477;SDS011;3780;42.424;25.636;2023-12-28T02:05:36;7.22;;;2.97;;
7477;SDS011;3780;42.424;25.636;2023-12-28T02:08:01;8.23;;;3.05;;
7477;SDS011;3780;42.424;25.636;2023-12-28T02:10:27;7.30;;;3.05;;
7477;SDS011;3780;42.424;25.636;2023-12-28T02:12:53;7.22;;;2.78;;
7477;SDS011;3780;42.424;25.636;2023-12-28T02:15:18;5.70;;;3.42;;
7477;SDS011;3780;42.424;25.636;2023-12-28T02:17:47;6.65;;;2.70;;
7477;SDS011;3780;42.424;25.636;2023-12-28T02:20:16;4.45;;;2.90;;
7477;SDS011;3780;42.424;25.636;2023-12-28T02:22:43;5.53;;;2.90;;
7477;SDS011;3780;42.424;25.636;2023-12-28T02:27:35;5.63;;;2.47;;
7477;SDS011;3780;42.424;25.636;2023-12-28T02:30:01;8.48;;;3.42;;
7477;SDS011;3780;42.424;25.636;2023-12-28T02:35:29;4.78;;;2.55;;
7477;SDS011;3780;42.424;25.636;2023-12-28T02:37:53;3.22;;;2.40;;
7477;SDS011;3780;42.424;25.636;2023-12-28T02:40:20;5.38;;;2.53;;
7477;SDS011;3780;42.424;25.636;2023-12-28T02:42:46;5.20;;;2.60;;
7477;SDS011;3780;42.424;25.636;2023-12-28T02:45:11;4.95;;;2.53;;
7477;SDS011;3780;42.424;25.636;2023-12-28T02:47:36;5.22;;;2.60;;
7477;SDS011;3780;42.424;25.636;2023-12-28T02:50:02;5.82;;;2.80;;
7477;SDS011;3780;42.424;25.636;2023-12-28T02:52:27;5.75;;;2.80;;
7477;SDS011;3780;42.424;25.636;2023-12-28T02:54:52;6.60;;;2.78;;
7477;SDS011;3780;42.424;25.636;2023-12-28T02:57:18;4.45;;;2.55;;
7477;SDS011;3780;42.424;25.636;2023-12-28T02:59:46;4.28;;;2.22;;
7477;SDS011;3780;42.424;25.636;2023-12-28T03:02:12;5.40;;;2.40;;
7477;SDS011;3780;42.424;25.636;2023-12-28T03:04:37;4.70;;;2.63;;
7477;SDS011;3780;42.424;25.636;2023-12-28T03:07:03;6.00;;;2.90;;
7477;SDS011;3780;42.424;25.636;2023-12-28T03:09:28;5.85;;;2.58;;
7477;SDS011;3780;42.424;25.636;2023-12-28T03:11:54;3.47;;;2.40;;
7477;SDS011;3780;42.424;25.636;2023-12-28T03:14:19;4.45;;;2.20;;
7477;SDS011;3780;42.424;25.636;2023-12-28T03:16:46;5.82;;;2.63;;
7477;SDS011;3780;42.424;25.636;2023-12-28T03:19:11;4.90;;;2.67;;
7477;SDS011;3780;42.424;25.636;2023-12-28T03:21:39;4.95;;;3.05;;
7477;SDS011;3780;42.424;25.636;2023-12-28T03:24:05;5.25;;;3.20;;
7477;SDS011;3780;42.424;25.636;2023-12-28T03:26:30;7.13;;;3.30;;
7477;SDS011;3780;42.424;25.636;2023-12-28T03:28:56;12.75;;;7.32;;
7477;SDS011;3780;42.424;25.636;2023-12-28T03:31:21;6.47;;;2.70;;
7477;SDS011;3780;42.424;25.636;2023-12-28T03:33:46;5.60;;;3.58;;
7477;SDS011;3780;42.424;25.636;2023-12-28T03:36:21;6.20;;;3.03;;
7477;SDS011;3780;42.424;25.636;2023-12-28T03:38:46;5.30;;;2.78;;
7477;SDS011;3780;42.424;25.636;2023-12-28T03:41:18;7.80;;;3.92;;
7477;SDS011;3780;42.424;25.636;2023-12-28T03:43:43;5.15;;;2.90;;
7477;SDS011;3780;42.424;25.636;2023-12-28T03:46:09;7.85;;;3.53;;
7477;SDS011;3780;42.424;25.636;2023-12-28T03:48:35;6.07;;;3.30;;
7477;SDS011;3780;42.424;25.636;2023-12-28T03:51:01;8.32;;;4.00;;
7477;SDS011;3780;42.424;25.636;2023-12-28T03:53:26;6.60;;;3.13;;
7477;SDS011;3780;42.424;25.636;2023-12-28T03:55:51;6.03;;;2.80;;
7477;SDS011;3780;42.424;25.636;2023-12-28T03:58:16;6.85;;;3.70;;
7477;SDS011;3780;42.424;25.636;2023-12-28T04:00:42;10.77;;;4.20;;
7477;SDS011;3780;42.424;25.636;2023-12-28T04:03:07;20.23;;;5.05;;
7477;SDS011;3780;42.424;25.636;2023-12-28T04:05:32;8.68;;;4.20;;
7477;SDS011;3780;42.424;25.636;2023-12-28T04:07:57;10.85;;;3.90;;
7477;SDS011;3780;42.424;25.636;2023-12-28T04:10:29;12.73;;;4.20;;
7477;SDS011;3780;42.424;25.636;2023-12-28T04:12:56;17.25;;;4.55;;
7477;SDS011;3780;42.424;25.636;2023-12-28T04:15:23;10.60;;;4.00;;
7477;SDS011;3780;42.424;25.636;2023-12-28T04:17:48;10.90;;;4.10;;
7477;SDS011;3780;42.424;25.636;2023-12-28T04:20:13;13.27;;;5.82;;
7477;SDS011;3780;42.424;25.636;2023-12-28T04:22:38;10.52;;;5.65;;
7477;SDS011;3780;42.424;25.636;2023-12-28T04:25:04;13.45;;;8.18;;
7477;SDS011;3780;42.424;25.636;2023-12-28T04:27:29;13.07;;;6.35;;
7477;SDS011;3780;42.424;25.636;2023-12-28T04:29:54;16.50;;;8.80;;
7477;SDS011;3780;42.424;25.636;2023-12-28T04:32:20;11.70;;;4.70;;
7477;SDS011;3780;42.424;25.636;2023-12-28T04:34:45;21.27;;;13.40;;
7477;SDS011;3780;42.424;25.636;2023-12-28T04:37:10;28.45;;;21.00;;
7477;SDS011;3780;42.424;25.636;2023-12-28T04:39:36;20.80;;;11.65;;
7477;SDS011;3780;42.424;25.636;2023-12-28T04:42:02;9.23;;;3.92;;
7477;SDS011;3780;42.424;25.636;2023-12-28T04:44:27;10.45;;;5.95;;
7477;SDS011;3780;42.424;25.636;2023-12-28T04:46:53;8.35;;;4.40;;
7477;SDS011;3780;42.424;25.636;2023-12-28T04:49:18;7.45;;;5.20;;
7477;SDS011;3780;42.424;25.636;2023-12-28T04:51:43;13.68;;;6.05;;
7477;SDS011;3780;42.424;25.636;2023-12-28T04:54:09;10.32;;;5.10;;
7477;SDS011;3780;42.424;25.636;2023-12-28T04:56:34;11.32;;;5.75;;
7477;SDS011;3780;42.424;25.636;2023-12-28T04:58:59;11.55;;;5.35;;
7477;SDS011;3780;42.424;25.636;2023-12-28T05:01:25;12.55;;;5.43;;
7477;SDS011;3780;42.424;25.636;2023-12-28T05:03:50;13.38;;;5.30;;
7477;SDS011;3780;42.424;25.636;2023-12-28T05:06:15;9.90;;;4.50;;
7477;SDS011;3780;42.424;25.636;2023-12-28T05:08:41;9.15;;;4.25;;
7477;SDS011;3780;42.424;25.636;2023-12-28T05:11:06;8.27;;;4.88;;
7477;SDS011;3780;42.424;25.636;2023-12-28T05:13:32;7.80;;;3.70;;
7477;SDS011;3780;42.424;25.636;2023-12-28T05:15:59;9.65;;;4.32;;
7477;SDS011;3780;42.424;25.636;2023-12-28T05:18:24;8.60;;;3.45;;
7477;SDS011;3780;42.424;25.636;2023-12-28T05:20:49;7.88;;;3.22;;
7477;SDS011;3780;42.424;25.636;2023-12-28T05:23:15;10.13;;;3.25;;
7477;SDS011;3780;42.424;25.636;2023-12-28T05:25:40;10.38;;;3.55;;
7477;SDS011;3780;42.424;25.636;2023-12-28T05:28:05;23.27;;;6.38;;
7477;SDS011;3780;42.424;25.636;2023-12-28T05:30:30;27.83;;;10.38;;
7477;SDS011;3780;42.424;25.636;2023-12-28T05:32:56;34.13;;;11.15;;
7477;SDS011;3780;42.424;25.636;2023-12-28T05:35:21;31.58;;;10.65;;
7477;SDS011;3780;42.424;25.636;2023-12-28T05:37:46;27.08;;;8.48;;
7477;SDS011;3780;42.424;25.636;2023-12-28T05:40:12;23.63;;;8.73;;
7477;SDS011;3780;42.424;25.636;2023-12-28T05:42:37;20.10;;;7.20;;
7477;SDS011;3780;42.424;25.636;2023-12-28T05:45:02;21.23;;;7.53;;
7477;SDS011;3780;42.424;25.636;2023-12-28T05:47:28;20.77;;;7.65;;
7477;SDS011;3780;42.424;25.636;2023-12-28T05:49:53;29.52;;;8.55;;
7477;SDS011;3780;42.424;25.636;2023-12-28T05:52:18;23.27;;;9.43;;
7477;SDS011;3780;42.424;25.636;2023-12-28T05:54:44;26.67;;;9.77;;
7477;SDS011;3780;42.424;25.636;2023-12-28T05:57:09;30.42;;;11.00;;
7477;SDS011;3780;42.424;25.636;2023-12-28T05:59:38;52.28;;;19.05;;
7477;SDS011;3780;42.424;25.636;2023-12-28T06:02:04;39.83;;;12.48;;
7477;SDS011;3780;42.424;25.636;2023-12-28T06:04:30;28.00;;;12.88;;
7477;SDS011;3780;42.424;25.636;2023-12-28T06:06:55;30.98;;;9.95;;
7477;SDS011;3780;42.424;25.636;2023-12-28T06:09:20;38.17;;;12.38;;
7477;SDS011;3780;42.424;25.636;2023-12-28T06:11:46;24.33;;;8.18;;
7477;SDS011;3780;42.424;25.636;2023-12-28T06:14:11;27.90;;;6.85;;
7477;SDS011;3780;42.424;25.636;2023-12-28T06:16:37;92.20;;;12.40;;
7477;SDS011;3780;42.424;25.636;2023-12-28T06:19:03;29.23;;;7.88;;
7477;SDS011;3780;42.424;25.636;2023-12-28T06:21:28;24.85;;;7.40;;
7477;SDS011;3780;42.424;25.636;2023-12-28T06:23:55;31.70;;;8.68;;
7477;SDS011;3780;42.424;25.636;2023-12-28T06:26:22;24.38;;;6.40;;
7477;SDS011;3780;42.424;25.636;2023-12-28T06:28:48;21.17;;;6.78;;
7477;SDS011;3780;42.424;25.636;2023-12-28T06:31:13;27.63;;;7.75;;
7477;SDS011;3780;42.424;25.636;2023-12-28T06:33:38;23.58;;;8.00;;
7477;SDS011;3780;42.424;25.636;2023-12-28T06:36:04;43.25;;;8.13;;
7477;SDS011;3780;42.424;25.636;2023-12-28T06:38:30;36.38;;;9.63;;
7477;SDS011;3780;42.424;25.636;2023-12-28T06:40:56;36.30;;;10.48;;
7477;SDS011;3780;42.424;25.636;2023-12-28T06:43:22;31.45;;;9.05;;
7477;SDS011;3780;42.424;25.636;2023-12-28T06:45:47;36.30;;;7.78;;
7477;SDS011;3780;42.424;25.636;2023-12-28T06:48:12;28.80;;;9.27;;
7477;SDS011;3780;42.424;25.636;2023-12-28T06:55:29;32.13;;;11.80;;
7477;SDS011;3780;42.424;25.636;2023-12-28T06:57:54;25.13;;;9.57;;
7477;SDS011;3780;42.424;25.636;2023-12-28T07:00:20;22.50;;;8.15;;
7477;SDS011;3780;42.424;25.636;2023-12-28T07:02:45;29.83;;;9.00;;
7477;SDS011;3780;42.424;25.636;2023-12-28T07:05:10;23.23;;;9.48;;
7477;SDS011;3780;42.424;25.636;2023-12-28T07:07:37;19.75;;;9.40;;
7477;SDS011;3780;42.424;25.636;2023-12-28T07:10:03;38.22;;;10.95;;
7477;SDS011;3780;42.424;25.636;2023-12-28T07:12:28;31.90;;;14.38;;
7477;SDS011;3780;42.424;25.636;2023-12-28T07:14:54;39.65;;;13.73;;
7477;SDS011;3780;42.424;25.636;2023-12-28T07:17:19;27.45;;;12.55;;
7477;SDS011;3780;42.424;25.636;2023-12-28T07:19:45;27.30;;;12.07;;
7477;SDS011;3780;42.424;25.636;2023-12-28T07:22:10;29.85;;;14.05;;
7477;SDS011;3780;42.424;25.636;2023-12-28T07:24:35;52.05;;;26.15;;
7477;SDS011;3780;42.424;25.636;2023-12-28T07:27:00;58.42;;;30.00;;
7477;SDS011;3780;42.424;25.636;2023-12-28T07:29:26;48.47;;;27.27;;
7477;SDS011;3780;42.424;25.636;2023-12-28T07:31:53;58.40;;;28.55;;
7477;SDS011;3780;42.424;25.636;2023-12-28T07:34:18;42.55;;;24.02;;
7477;SDS011;3780;42.424;25.636;2023-12-28T07:36:43;30.50;;;21.50;;
7477;SDS011;3780;42.424;25.636;2023-12-28T07:39:09;33.83;;;20.20;;
7477;SDS011;3780;42.424;25.636;2023-12-28T07:41:34;30.15;;;16.33;;
7477;SDS011;3780;42.424;25.636;2023-12-28T07:44:00;28.92;;;15.52;;
7477;SDS011;3780;42.424;25.636;2023-12-28T07:46:25;23.83;;;13.77;;
7477;SDS011;3780;42.424;25.636;2023-12-28T07:48:50;34.80;;;17.70;;
7477;SDS011;3780;42.424;25.636;2023-12-28T07:51:21;25.33;;;14.82;;
7477;SDS011;3780;42.424;25.636;2023-12-28T07:53:46;23.85;;;12.23;;
7477;SDS011;3780;42.424;25.636;2023-12-28T07:56:12;26.08;;;13.48;;
7477;SDS011;3780;42.424;25.636;2023-12-28T07:58:38;18.15;;;11.95;;
7477;SDS011;3780;42.424;25.636;2023-12-28T08:01:09;18.88;;;10.77;;
7477;SDS011;3780;42.424;25.636;2023-12-28T08:03:34;19.70;;;10.93;;
7477;SDS011;3780;42.424;25.636;2023-12-28T08:05:59;20.70;;;11.10;;
7477;SDS011;3780;42.424;25.636;2023-12-28T08:08:24;20.58;;;11.20;;
7477;SDS011;3780;42.424;25.636;2023-12-28T08:10:50;19.85;;;10.38;;
7477;SDS011;3780;42.424;25.636;2023-12-28T08:13:15;18.83;;;9.77;;
7477;SDS011;3780;42.424;25.636;2023-12-28T08:15:40;24.38;;;9.95;;
7477;SDS011;3780;42.424;25.636;2023-12-28T08:18:06;17.30;;;8.13;;
7477;SDS011;3780;42.424;25.636;2023-12-28T08:20:31;17.10;;;8.73;;
7477;SDS011;3780;42.424;25.636;2023-12-28T08:22:56;16.75;;;8.30;;
7477;SDS011;3780;42.424;25.636;2023-12-28T08:25:22;14.45;;;8.52;;
7477;SDS011;3780;42.424;25.636;2023-12-28T08:27:47;22.20;;;8.93;;
7477;SDS011;3780;42.424;25.636;2023-12-28T08:30:13;23.20;;;9.65;;
7477;SDS011;3780;42.424;25.636;2023-12-28T08:32:38;12.60;;;6.72;;
7477;SDS011;3780;42.424;25.636;2023-12-28T08:35:04;16.73;;;6.68;;
7477;SDS011;3780;42.424;25.636;2023-12-28T08:37:29;10.57;;;6.53;;
7477;SDS011;3780;42.424;25.636;2023-12-28T08:39:55;9.88;;;5.72;;
7477;SDS011;3780;42.424;25.636;2023-12-28T08:42:20;15.60;;;6.60;;
7477;SDS011;3780;42.424;25.636;2023-12-28T08:44:46;12.77;;;6.43;;
7477;SDS011;3780;42.424;25.636;2023-12-28T08:47:11;14.70;;;7.22;;
7477;SDS011;3780;42.424;25.636;2023-12-28T08:49:37;13.00;;;7.40;;
7477;SDS011;3780;42.424;25.636;2023-12-28T08:52:02;17.83;;;7.75;;
7477;SDS011;3780;42.424;25.636;2023-12-28T08:54:28;14.85;;;6.90;;
7477;SDS011;3780;42.424;25.636;2023-12-28T08:56:53;8.15;;;4.68;;
7477;SDS011;3780;42.424;25.636;2023-12-28T08:59:18;17.05;;;6.32;;
7477;SDS011;3780;42.424;25.636;2023-12-28T09:01:44;12.68;;;6.07;;
7477;SDS011;3780;42.424;25.636;2023-12-28T09:04:09;19.40;;;6.93;;
7477;SDS011;3780;42.424;25.636;2023-12-28T09:06:34;9.57;;;5.85;;
7477;SDS011;3780;42.424;25.636;2023-12-28T09:09:00;12.05;;;5.10;;
7477;SDS011;3780;42.424;25.636;2023-12-28T09:11:25;12.15;;;5.57;;
7477;SDS011;3780;42.424;25.636;2023-12-28T09:13:52;12.88;;;5.47;;
7477;SDS011;3780;42.424;25.636;2023-12-28T09:16:17;13.38;;;6.60;;
7477;SDS011;3780;42.424;25.636;2023-12-28T09:18:42;20.05;;;10.27;;
7477;SDS011;3780;42.424;25.636;2023-12-28T09:21:08;28.13;;;14.70;;
7477;SDS011;3780;42.424;25.636;2023-12-28T09:23:34;31.90;;;19.95;;
7477;SDS011;3780;42.424;25.636;2023-12-28T09:26:00;31.08;;;15.00;;
7477;SDS011;3780;42.424;25.636;2023-12-28T09:28:25;20.58;;;8.55;;
7477;SDS011;3780;42.424;25.636;2023-12-28T09:30:51;14.20;;;8.45;;
7477;SDS011;3780;42.424;25.636;2023-12-28T09:33:16;11.68;;;7.00;;
7477;SDS011;3780;42.424;25.636;2023-12-28T09:35:41;13.35;;;6.15;;
7477;SDS011;3780;42.424;25.636;2023-12-28T09:38:07;14.27;;;7.53;;
7477;SDS011;3780;42.424;25.636;2023-12-28T09:40:32;10.48;;;5.75;;
7477;SDS011;3780;42.424;25.636;2023-12-28T09:43:03;9.05;;;5.22;;
7477;SDS011;3780;42.424;25.636;2023-12-28T09:45:31;12.77;;;5.82;;
7477;SDS011;3780;42.424;25.636;2023-12-28T09:47:56;14.95;;;7.53;;
7477;SDS011;3780;42.424;25.636;2023-12-28T09:50:22;23.13;;;9.75;;
7477;SDS011;3780;42.424;25.636;2023-12-28T09:52:51;26.27;;;11.90;;
7477;SDS011;3780;42.424;25.636;2023-12-28T09:55:16;21.63;;;8.13;;
7477;SDS011;3780;42.424;25.636;2023-12-28T09:57:42;18.40;;;7.78;;
7477;SDS011;3780;42.424;25.636;2023-12-28T10:00:08;12.23;;;6.35;;
7477;SDS011;3780;42.424;25.636;2023-12-28T10:02:34;16.50;;;6.93;;
7477;SDS011;3780;42.424;25.636;2023-12-28T10:05:01;13.52;;;6.30;;
7477;SDS011;3780;42.424;25.636;2023-12-28T10:07:26;11.90;;;5.90;;
7477;SDS011;3780;42.424;25.636;2023-12-28T10:09:52;12.80;;;7.70;;
7477;SDS011;3780;42.424;25.636;2023-12-28T10:12:17;12.60;;;6.07;;
7477;SDS011;3780;42.424;25.636;2023-12-28T10:14:43;9.52;;;5.05;;
7477;SDS011;3780;42.424;25.636;2023-12-28T10:17:08;10.02;;;4.68;;
7477;SDS011;3780;42.424;25.636;2023-12-28T10:19:34;10.52;;;5.18;;
7477;SDS011;3780;42.424;25.636;2023-12-28T10:21:59;12.98;;;5.57;;
7477;SDS011;3780;42.424;25.636;2023-12-28T10:24:25;16.67;;;6.55;;
7477;SDS011;3780;42.424;25.636;2023-12-28T10:26:50;6.60;;;4.15;;
7477;SDS011;3780;42.424;25.636;2023-12-28T10:29:17;8.38;;;4.85;;
7477;SDS011;3780;42.424;25.636;2023-12-28T10:31:42;16.15;;;4.60;;
7477;SDS011;3780;42.424;25.636;2023-12-28T10:34:08;10.98;;;4.15;;
7477;SDS011;3780;42.424;25.636;2023-12-28T10:36:33;4.80;;;3.30;;
7477;SDS011;3780;42.424;25.636;2023-12-28T10:39:01;5.50;;;3.20;;
7477;SDS011;3780;42.424;25.636;2023-12-28T10:41:26;9.68;;;3.47;;
7477;SDS011;3780;42.424;25.636;2023-12-28T10:44:03;9.30;;;3.08;;
7477;SDS011;3780;42.424;25.636;2023-12-28T10:46:30;9.75;;;3.00;;
7477;SDS011;3780;42.424;25.636;2023-12-28T10:49:00;7.75;;;3.13;;
7477;SDS011;3780;42.424;25.636;2023-12-28T10:51:25;5.78;;;2.85;;
7477;SDS011;3780;42.424;25.636;2023-12-28T10:53:59;7.90;;;3.60;;
7477;SDS011;3780;42.424;25.636;2023-12-28T10:59:09;12.25;;;3.92;;
7477;SDS011;3780;42.424;25.636;2023-12-28T11:01:39;11.17;;;9.27;;
7477;SDS011;3780;42.424;25.636;2023-12-28T11:04:07;10.25;;;4.43;;
7477;SDS011;3780;42.424;25.636;2023-12-28T11:06:35;7.10;;;3.72;;
7477;SDS011;3780;42.424;25.636;2023-12-28T11:09:01;9.00;;;3.00;;
7477;SDS011;3780;42.424;25.636;2023-12-28T11:11:28;7.40;;;3.85;;
7477;SDS011;3780;42.424;25.636;2023-12-28T11:13:55;10.05;;;4.15;;
7477;SDS011;3780;42.424;25.636;2023-12-28T11:16:21;6.53;;;3.88;;
7477;SDS011;3780;42.424;25.636;2023-12-28T11:18:47;8.95;;;3.67;;
7477;SDS011;3780;42.424;25.636;2023-12-28T11:21:12;8.02;;;3.92;;
7477;SDS011;3780;42.424;25.636;2023-12-28T11:23:38;8.32;;;4.10;;
7477;SDS011;3780;42.424;25.636;2023-12-28T11:26:03;10.40;;;4.50;;
7477;SDS011;3780;42.424;25.636;2023-12-28T11:28:29;13.07;;;4.68;;
7477;SDS011;3780;42.424;25.636;2023-12-28T11:30:55;7.88;;;4.22;;
7477;SDS011;3780;42.424;25.636;2023-12-28T11:33:21;12.30;;;4.30;;
7477;SDS011;3780;42.424;25.636;2023-12-28T11:35:47;9.43;;;4.57;;
7477;SDS011;3780;42.424;25.636;2023-12-28T11:38:12;10.32;;;4.00;;
7477;SDS011;3780;42.424;25.636;2023-12-28T11:40:42;11.85;;;4.15;;
7477;SDS011;3780;42.424;25.636;2023-12-28T11:43:19;8.75;;;4.30;;
7477;SDS011;3780;42.424;25.636;2023-12-28T11:45:49;5.70;;;3.60;;
7477;SDS011;3780;42.424;25.636;2023-12-28T11:48:25;7.85;;;3.85;;
7477;SDS011;3780;42.424;25.636;2023-12-28T11:50:59;12.20;;;4.10;;
7477;SDS011;3780;42.424;25.636;2023-12-28T11:53:25;6.10;;;3.23;;
7477;SDS011;3780;42.424;25.636;2023-12-28T11:55:50;6.50;;;3.55;;
7477;SDS011;3780;42.424;25.636;2023-12-28T11:58:16;10.13;;;3.72;;
7477;SDS011;3780;42.424;25.636;2023-12-28T12:00:42;8.32;;;3.47;;
7477;SDS011;3780;42.424;25.636;2023-12-28T12:03:09;8.43;;;3.92;;
7477;SDS011;3780;42.424;25.636;2023-12-28T12:05:34;11.65;;;4.13;;
7477;SDS011;3780;42.424;25.636;2023-12-28T12:08:01;6.85;;;3.60;;
7477;SDS011;3780;42.424;25.636;2023-12-28T12:10:26;8.40;;;3.83;;
7477;SDS011;3780;42.424;25.636;2023-12-28T12:12:52;12.13;;;3.75;;
7477;SDS011;3780;42.424;25.636;2023-12-28T12:15:18;6.07;;;3.40;;
7477;SDS011;3780;42.424;25.636;2023-12-28T12:17:43;6.35;;;3.83;;
7477;SDS011;3780;42.424;25.636;2023-12-28T12:20:09;9.40;;;4.35;;
7477;SDS011;3780;42.424;25.636;2023-12-28T12:22:34;7.30;;;3.38;;
7477;SDS011;3780;42.424;25.636;2023-12-28T12:25:00;12.75;;;4.22;;
7477;SDS011;3780;42.424;25.636;2023-12-28T12:27:28;9.25;;;3.50;;
7477;SDS011;3780;42.424;25.636;2023-12-28T12:29:54;8.27;;;4.03;;
7477;SDS011;3780;42.424;25.636;2023-12-28T12:32:19;8.27;;;3.55;;
7477;SDS011;3780;42.424;25.636;2023-12-28T12:34:44;11.55;;;4.55;;
7477;SDS011;3780;42.424;25.636;2023-12-28T12:37:10;14.02;;;4.03;;
7477;SDS011;3780;42.424;25.636;2023-12-28T12:39:35;7.20;;;3.63;;
7477;SDS011;3780;42.424;25.636;2023-12-28T12:42:01;12.50;;;4.65;;
7477;SDS011;3780;42.424;25.636;2023-12-28T12:44:27;11.63;;;4.20;;
7477;SDS011;3780;42.424;25.636;2023-12-28T12:46:56;8.48;;;4.20;;
7477;SDS011;3780;42.424;25.636;2023-12-28T12:49:22;11.25;;;4.38;;
7477;SDS011;3780;42.424;25.636;2023-12-28T12:51:47;9.70;;;4.05;;
7477;SDS011;3780;42.424;25.636;2023-12-28T12:54:16;9.95;;;4.20;;
7477;SDS011;3780;42.424;25.636;2023-12-28T12:56:42;7.88;;;4.15;;
7477;SDS011;3780;42.424;25.636;2023-12-28T12:59:10;8.25;;;4.22;;
7477;SDS011;3780;42.424;25.636;2023-12-28T13:01:40;17.27;;;5.30;;
7477;SDS011;3780;42.424;25.636;2023-12-28T13:04:06;6.60;;;4.28;;
7477;SDS011;3780;42.424;25.636;2023-12-28T13:06:31;21.13;;;5.05;;
7477;SDS011;3780;42.424;25.636;2023-12-28T13:08:57;7.40;;;4.30;;
7477;SDS011;3780;42.424;25.636;2023-12-28T13:11:22;10.75;;;4.88;;
7477;SDS011;3780;42.424;25.636;2023-12-28T13:13:51;8.60;;;4.55;;
7477;SDS011;3780;42.424;25.636;2023-12-28T13:16:16;13.95;;;4.85;;
7477;SDS011;3780;42.424;25.636;2023-12-28T13:18:41;7.15;;;4.43;;
7477;SDS011;3780;42.424;25.636;2023-12-28T13:21:07;13.07;;;5.53;;
7477;SDS011;3780;42.424;25.636;2023-12-28T13:23:32;11.18;;;5.15;;
7477;SDS011;3780;42.424;25.636;2023-12-28T13:25:57;17.52;;;5.57;;
7477;SDS011;3780;42.424;25.636;2023-12-28T13:28:23;21.77;;;6.53;;
7477;SDS011;3780;42.424;25.636;2023-12-28T13:30:48;11.40;;;6.00;;
7477;SDS011;3780;42.424;25.636;2023-12-28T13:33:16;9.98;;;4.63;;
7477;SDS011;3780;42.424;25.636;2023-12-28T13:35:41;8.25;;;4.68;;
7477;SDS011;3780;42.424;25.636;2023-12-28T13:38:06;12.25;;;4.88;;
7477;SDS011;3780;42.424;25.636;2023-12-28T13:40:31;10.40;;;5.95;;
7477;SDS011;3780;42.424;25.636;2023-12-28T13:42:57;10.70;;;5.20;;
7477;SDS011;3780;42.424;25.636;2023-12-28T13:45:22;18.13;;;5.85;;
7477;SDS011;3780;42.424;25.636;2023-12-28T13:47:47;9.95;;;4.80;;
7477;SDS011;3780;42.424;25.636;2023-12-28T13:50:13;10.07;;;4.95;;
7477;SDS011;3780;42.424;25.636;2023-12-28T13:52:38;13.55;;;5.57;;
7477;SDS011;3780;42.424;25.636;2023-12-28T13:55:04;8.23;;;5.45;;
7477;SDS011;3780;42.424;25.636;2023-12-28T13:57:29;10.70;;;4.90;;
7477;SDS011;3780;42.424;25.636;2023-12-28T13:59:55;24.38;;;7.18;;
7477;SDS011;3780;42.424;25.636;2023-12-28T14:02:25;9.60;;;5.03;;
7477;SDS011;3780;42.424;25.636;2023-12-28T14:04:50;10.70;;;5.72;;
7477;SDS011;3780;42.424;25.636;2023-12-28T14:07:16;11.88;;;5.57;;
7477;SDS011;3780;42.424;25.636;2023-12-28T14:09:41;9.13;;;5.63;;
7477;SDS011;3780;42.424;25.636;2023-12-28T14:12:06;12.70;;;6.32;;
7477;SDS011;3780;42.424;25.636;2023-12-28T14:14:32;17.58;;;6.72;;
7477;SDS011;3780;42.424;25.636;2023-12-28T14:16:57;26.80;;;13.68;;
7477;SDS011;3780;42.424;25.636;2023-12-28T14:19:22;25.83;;;18.83;;
7477;SDS011;3780;42.424;25.636;2023-12-28T14:21:47;12.95;;;7.50;;
7477;SDS011;3780;42.424;25.636;2023-12-28T14:24:13;16.23;;;9.45;;
7477;SDS011;3780;42.424;25.636;2023-12-28T14:26:42;20.65;;;12.52;;
7477;SDS011;3780;42.424;25.636;2023-12-28T14:29:08;23.73;;;16.00;;
7477;SDS011;3780;42.424;25.636;2023-12-28T14:31:33;23.40;;;16.17;;
7477;SDS011;3780;42.424;25.636;2023-12-28T14:33:59;24.38;;;17.48;;
7477;SDS011;3780;42.424;25.636;2023-12-28T14:38:50;24.70;;;16.80;;
7477;SDS011;3780;42.424;25.636;2023-12-28T14:41:15;20.48;;;12.90;;
7477;SDS011;3780;42.424;25.636;2023-12-28T14:43:40;13.95;;;9.05;;
7477;SDS011;3780;42.424;25.636;2023-12-28T14:46:05;14.48;;;7.72;;
7477;SDS011;3780;42.424;25.636;2023-12-28T14:48:31;14.45;;;7.32;;
7477;SDS011;3780;42.424;25.636;2023-12-28T14:50:56;13.80;;;7.63;;
7477;SDS011;3780;42.424;25.636;2023-12-28T14:53:22;10.43;;;6.47;;
7477;SDS011;3780;42.424;25.636;2023-12-28T14:55:49;12.23;;;6.82;;
7477;SDS011;3780;42.424;25.636;2023-12-28T14:58:15;13.25;;;7.90;;
7477;SDS011;3780;42.424;25.636;2023-12-28T15:00:43;17.92;;;8.98;;